Time;durP1;ratioP1;P1;durP2;ratioP2;P2;SDS_P1;SDS_P2;PMS_P1;PMS_P2;Temp;Humidity;BMP_temperature;BMP_pressure;BME280_temperature;BME280_humidity;BME280_pressure;Samples;Min_cycle;Max_cycle;Signal;HPM_P1;HPM_P2
2022/08/08 00:00:42;;;;;;;;;;;;;;;-146.13;0.00;99761.55;1675562;84;20143;-70
2022/08/08 00:03:28;;;;;;;;;;;;;;;-144.83;0.00;76209.31;1688926;84;20525;-71
2022/08/08 00:06:11;;;;;;;;;;;;;;;-146.14;100.00;121243.23;1697910;84;20177;-72
2022/08/08 00:08:59;;;;;;;;;;;;;;;-146.14;100.00;121243.23;1695662;84;21132;-72
2022/08/08 00:11:36;;;;;;;;;;;;;;;-146.13;100.00;159400.30;1687523;84;20615;-70
2022/08/08 00:14:14;;;;;;;;;;;;;;;-146.14;100.00;121243.23;1695253;84;20103;-71
2022/08/08 00:16:47;;;;;;;;;;;;;;;-146.14;100.00;121243.23;1692126;84;20172;-71
2022/08/08 00:19:39;;;;;;;;;;;;;;;-146.14;100.00;121243.23;1707898;81;20335;-71
2022/08/08 00:22:18;;;;;;;;;;;;;;;16.59;100.00;99761.55;1732015;81;21275;-71
2022/08/08 00:24:47;;;;;;;;;;;;;;;-144.83;100.00;99761.55;1730561;81;20118;-70
2022/08/08 00:27:13;;;;;;;;;;;;;;;-93.79;100.00;91880.03;1729067;81;20098;-70
2022/08/08 00:29:45;;;;;;;;;;;;;;;-144.83;100.00;99761.55;1719518;82;20143;-71
2022/08/08 00:32:31;;;;;;;;;;;;;;;-144.83;100.00;76377.33;1718121;82;20170;-70
2022/08/08 00:35:19;;;;;;;;;;;;;;;-144.83;100.00;99761.55;1712114;82;21299;-71
2022/08/08 00:38:16;;;;;;;;;;;;;;;-144.83;0.00;76209.31;1719539;82;20449;-71
2022/08/08 00:41:13;;;;;;;;;;;;;;;16.59;100.00;99761.55;1730568;83;20420;-71
2022/08/08 00:43:47;;;;;;;;;;;;;;;-144.83;100.00;99780.34;1707228;82;20115;-72
2022/08/08 00:46:20;;;;;;;;;;;;;;;16.74;100.00;99780.34;1721630;82;20122;-71
2022/08/08 00:49:02;;;;;;;;;;;;;;;189.42;100.00;121243.23;1729967;82;21306;-71
2022/08/08 00:51:58;;;;;;;;;;;;;;;-146.13;100.00;99776.30;1723588;82;20098;-73
2022/08/08 00:55:10;;;;;;;;;;;;;;;-146.14;100.00;121243.23;1726716;82;20099;-72
2022/08/08 00:58:12;;;;;;;;;;;;;;;-146.14;100.00;121243.23;1700127;83;20114;-71
2022/08/08 01:01:07;;;;;;;;;;;;;;;-146.14;100.00;121243.23;1689796;81;20226;-71
2022/08/08 01:04:11;;;;;;;;;;;;;;;-146.14;100.00;121243.23;1712105;81;21248;-72
2022/08/08 01:07:06;;;;;;;;;;;;;;;-146.14;100.00;121243.23;1728572;82;20477;-72
2022/08/08 01:09:44;;;;;;;;;;;;;;;-146.13;0.00;99776.30;1700426;83;20098;-71
2022/08/08 01:12:53;;;;;;;;;;;;;;;189.42;0.00;76205.21;1720288;82;20086;-71
2022/08/08 01:15:29;;;;;;;;;;;;;;;16.71;100.00;121243.23;1718883;82;20428;-72
2022/08/08 01:18:18;;;;;;;;;;;;;;;-146.13;0.00;121243.64;1719202;82;21312;-72
2022/08/08 01:21:13;;;;;;;;;;;;;;;-146.14;47.45;121243.23;1723078;82;20083;-71
2022/08/08 01:23:44;;;;;;;;;;;;;;;-122.38;100.00;81419.39;1720832;82;20075;-71
2022/08/08 01:26:24;;;;;;;;;;;;;;;189.42;0.00;99776.30;1719531;82;20118;-71
2022/08/08 01:29:08;;;;;;;;;;;;;;;-146.14;100.00;121243.23;1714550;82;20439;-71
2022/08/08 01:31:59;;;;;;;;;;;;;;;-146.14;100.00;121243.23;1717168;83;21245;-71
2022/08/08 01:34:47;;;;;;;;;;;;;;;-146.14;100.00;121243.23;1708259;82;20102;-71
2022/08/08 01:37:31;;;;;;;;;;;;;;;-146.13;100.00;99776.30;1719259;83;20098;-69
2022/08/08 01:40:28;;;;;;;;;;;;;;;189.42;100.00;76205.21;1695706;83;20446;-69
2022/08/08 01:43:11;;;;;;;;;;;;;;;-146.14;100.00;121243.23;1695423;83;20211;-71
2022/08/08 01:45:57;;;;;;;;;;;;;;;-146.13;100.00;99776.30;1617031;87;21181;-71
2022/08/08 01:48:58;;;;;;;;;;;;;;;16.71;100.00;99776.30;1616931;88;20266;-71
2022/08/08 01:51:41;;;;;;;;;;;;;;;16.71;100.00;99791.77;1626168;87;20243;-70
2022/08/08 01:54:28;;;;;;;;;;;;;;;16.71;100.00;99791.77;1625939;88;20160;-70
2022/08/08 01:57:23;;;;;;;;;;;;;;;16.71;100.00;99793.12;1626046;88;20264;-71
2022/08/08 02:00:11;;;;;;;;;;;;;;;16.71;100.00;99793.12;1629037;87;21171;-70
2022/08/08 02:03:16;;;;;;;;;;;;;;;16.67;100.00;99786.65;1627055;87;20129;-71
2022/08/08 02:06:17;;;;;;;;;;;;;;;16.67;100.00;99789.36;1625406;88;20196;-71
2022/08/08 02:09:02;;;;;;;;;;;;;;;-93.79;100.00;99789.36;1622238;88;20339;-70
2022/08/08 02:11:42;;;;;;;;;;;;;;;-144.83;100.00;99789.36;1623409;88;20202;-70
2022/08/08 02:14:40;;;;;;;;;;;;;;;16.67;100.00;99789.36;1626166;87;21191;-71
2022/08/08 02:17:14;;;;;;;;;;;;;;;16.67;100.00;99789.36;1622938;87;20144;-71
2022/08/08 02:20:07;;;;;;;;;;;;;;;16.62;100.00;99784.00;1606585;87;20201;-70
2022/08/08 02:22:45;;;;;;;;;;;;;;;16.61;100.00;99781.84;1586708;88;20475;-70
2022/08/08 02:25:38;;;;;;;;;;;;;;;16.60;100.00;99780.21;1634001;84;20470;-71
2022/08/08 02:28:09;;;;;;;;;;;;;;;16.62;100.00;99782.64;1658368;85;20909;-70
2022/08/08 02:30:39;;;;;;;;;;;;;;;16.66;100.00;99785.84;1672797;85;20128;-70
2022/08/08 02:33:15;;;;;;;;;;;;;;;16.66;100.00;99785.84;1657667;85;20105;-70
2022/08/08 02:35:58;;;;;;;;;;;;;;;16.66;100.00;99790.47;1661221;85;20100;-71
2022/08/08 02:38:35;;;;;;;;;;;;;;;16.65;100.00;99796.41;1670889;84;20428;-73
2022/08/08 02:41:15;;;;;;;;;;;;;;;16.62;100.00;99792.93;1693345;83;21254;-71
2022/08/08 02:44:24;;;;;;;;;;;;;;;16.59;100.00;99793.52;1693435;83;20163;-70
2022/08/08 02:46:54;;;;;;;;;;;;;;;16.59;100.00;99796.78;1693245;83;20137;-71
2022/08/08 02:49:41;;;;;;;;;;;;;;;16.55;100.00;99805.21;1696533;83;20095;-71
2022/08/08 02:52:15;;;;;;;;;;;;;;;16.52;100.00;99799.02;1693431;83;20597;-71
2022/08/08 02:55:21;;;;;;;;;;;;;;;16.49;100.00;126655.19;1695622;83;21158;-71
2022/08/08 02:58:24;;;;;;;;;;;;;;;16.48;100.00;99797.41;1690939;84;20117;-71
2022/08/08 03:01:14;;;;;;;;;;;;;;;16.49;100.00;99802.55;1693409;83;20118;-71
2022/08/08 03:04:01;;;;;;;;;;;;;;;16.49;100.00;99802.55;1665906;84;20201;-71
2022/08/08 03:06:40;;;;;;;;;;;;;;;16.47;100.00;99800.67;1666974;85;20103;-70
2022/08/08 03:09:26;;;;;;;;;;;;;;;16.47;100.00;99804.73;1677088;84;21975;-71
2022/08/08 03:12:23;;;;;;;;;;;;;;;16.46;100.00;99807.72;1664104;83;20181;-71
2022/08/08 03:15:02;;;;;;;;;;;;;;;16.43;100.00;99805.59;1657820;85;20187;-71
2022/08/08 03:17:53;;;;;;;;;;;;;;;16.43;100.00;99808.30;1653245;84;20235;-69
2022/08/08 03:20:19;;;;;;;;;;;;;;;16.45;100.00;99812.89;1653909;85;20191;-70
2022/08/08 03:22:49;;;;;;;;;;;;;;;16.41;100.00;99813.19;1657857;85;21499;-70
2022/08/08 03:25:17;;;;;;;;;;;;;;;16.40;100.00;99814.30;1653601;85;20483;-71
2022/08/08 03:27:53;;;;;;;;;;;;;;;16.40;100.00;99811.04;1652103;85;20496;-70
2022/08/08 03:30:19;;;;;;;;;;;;;;;16.40;100.00;99809.69;1680617;84;20263;-71
2022/08/08 03:35:38;;;;;;;;;;;;;;;16.44;100.00;99819.42;1683217;84;21331;-71
2022/08/08 03:38:05;;;;;;;;;;;;;;;16.41;100.00;99821.32;1683438;84;20151;-71
2022/08/08 03:40:31;;;;;;;;;;;;;;;16.39;100.00;99822.98;1688866;83;20156;-71
2022/08/08 03:43:00;;;;;;;;;;;;;;;16.42;100.00;99823.75;1692667;83;20149;-72
2022/08/08 03:45:27;;;;;;;;;;;;;;;16.42;100.00;99825.11;1691628;83;20118;-72
2022/08/08 03:48:06;;;;;;;;;;;;;;;16.42;100.00;99831.88;1748883;81;21143;-75
2022/08/08 03:50:36;;;;;;;;;;;;;;;16.39;100.00;99827.05;1751059;81;20095;-72
2022/08/08 03:53:11;;;;;;;;;;;;;;;16.32;100.00;99830.63;1717415;81;20123;-72
2022/08/08 03:55:43;;;;;;;;;;;;;;;16.30;100.00;99834.16;1704648;82;20110;-71
2022/08/08 03:58:12;;;;;;;;;;;;;;;16.33;100.00;99832.78;1707665;83;20140;-70
2022/08/08 04:00:38;;;;;;;;;;;;;;;16.36;100.00;99827.59;1713595;83;21179;-72
2022/08/08 04:03:07;;;;;;;;;;;;;;;16.34;100.00;99831.16;1687258;84;20096;-71
2022/08/08 04:05:36;;;;;;;;;;;;;;;16.30;100.00;99831.45;1684725;84;20158;-71
2022/08/08 04:08:06;;;;;;;;;;;;;;;16.29;100.00;99835.23;1654657;85;38659;-72
2022/08/08 04:10:33;;;;;;;;;;;;;;;16.31;100.00;99839.83;1681537;84;20551;-72
2022/08/08 04:13:02;;;;;;;;;;;;;;;16.31;100.00;99838.48;1653802;85;21316;-72
2022/08/08 04:15:29;;;;;;;;;;;;;;;16.29;100.00;121243.23;1676941;84;20432;-72
2022/08/08 04:17:59;;;;;;;;;;;;;;;-146.13;0.00;76311.80;1655021;85;20157;-71
2022/08/08 04:20:26;;;;;;;;;;;;;;;16.29;100.00;99850.97;1687390;84;20126;-75
2022/08/08 04:22:53;;;;;;;;;;;;;;;189.42;100.00;76311.80;1654778;86;20166;-72
2022/08/08 04:25:25;;;;;;;;;;;;;;;189.42;0.00;121243.64;1677040;84;20540;-71
2022/08/08 04:27:52;;;;;;;;;;;;;;;-146.13;0.00;76838.56;1679991;85;20128;-72
2022/08/08 04:30:20;;;;;;;;;;;;;;;16.29;100.00;99850.97;1664514;84;20284;-71
2022/08/08 04:32:49;;;;;;;;;;;;;;;189.42;100.00;76311.80;1679886;83;20114;-71
2022/08/08 04:35:16;;;;;;;;;;;;;;;189.42;100.00;121243.64;1675876;83;20151;-71
2022/08/08 04:37:42;;;;;;;;;;;;;;;-146.13;0.00;121329.81;1703166;82;21242;-71
2022/08/08 04:40:11;;;;;;;;;;;;;;;-106.88;100.00;99850.97;1690910;83;20431;-71
2022/08/08 04:42:40;;;;;;;;;;;;;;;-93.79;100.00;99850.97;1675641;85;20459;-72
2022/08/08 04:45:07;;;;;;;;;;;;;;;16.29;100.00;99850.97;1661344;85;20413;-72
2022/08/08 04:47:36;;;;;;;;;;;;;;;16.32;100.00;99857.72;1662583;85;20110;-72
2022/08/08 04:50:04;;;;;;;;;;;;;;;16.34;100.00;99859.60;1662072;85;21165;-73
2022/08/08 04:52:31;;;;;;;;;;;;;;;16.39;100.00;99860.91;1673870;85;20104;-72
2022/08/08 04:54:58;;;;;;;;;;;;;;;16.44;100.00;99858.15;1683017;85;20104;-71
2022/08/08 04:57:24;;;;;;;;;;;;;;;189.42;100.00;99855.41;1668511;84;20094;-70
2022/08/08 04:59:51;;;;;;;;;;;;;;;16.47;100.00;99855.41;1664552;85;20102;-74
2022/08/08 05:02:18;;;;;;;;;;;;;;;16.58;100.00;99852.84;1683046;85;21258;-75
2022/08/08 05:04:44;;;;;;;;;;;;;;;16.55;100.00;99858.05;1682933;84;20076;-72
2022/08/08 05:07:11;;;;;;;;;;;;;;;16.53;100.00;99863.74;1678855;85;20439;-74
2022/08/08 05:09:39;;;;;;;;;;;;;;;16.58;100.00;99865.05;1663840;85;20143;-72
2022/08/08 05:12:06;;;;;;;;;;;;;;;16.57;100.00;99862.08;1654298;84;20141;-73
2022/08/08 05:14:33;;;;;;;;;;;;;;;16.62;100.00;99865.30;1640379;84;21308;-72
2022/08/08 05:17:03;;;;;;;;;;;;;;;16.64;100.00;99865.82;1647405;84;20146;-70
2022/08/08 05:19:34;;;;;;;;;;;;;;;16.63;100.00;99868.25;1711474;82;20171;-72
2022/08/08 05:22:00;;;;;;;;;;;;;;;16.64;100.00;99866.63;1729769;81;20095;-69
2022/08/08 05:24:28;;;;;;;;;;;;;;;16.67;100.00;99866.05;1750076;81;20075;-69
2022/08/08 05:26:55;;;;;;;;;;;;;;;16.60;100.00;99862.86;1750797;81;21106;-70
2022/08/08 05:29:22;;;;;;;;;;;;;;;16.60;100.00;99866.92;1729929;81;20123;-72
2022/08/08 05:31:49;;;;;;;;;;;;;;;16.60;100.00;99871.55;1713636;83;20099;-69
2022/08/08 05:34:32;;;;;;;;;;;;;;;16.63;100.00;99867.70;1706028;83;20452;-73
2022/08/08 05:36:59;;;;;;;;;;;;;;;16.65;100.00;99875.56;1697267;83;20474;-72
2022/08/08 05:39:26;;;;;;;;;;;;;;;16.61;100.00;99869.91;1711367;83;21096;-74
2022/08/08 05:41:52;;;;;;;;;;;;;;;16.60;100.00;99875.61;1705834;83;20420;-70
2022/08/08 05:44:28;;;;;;;;;;;;;;;16.62;100.00;99880.20;1705527;83;20082;-75
2022/08/08 05:46:57;;;;;;;;;;;;;;;16.60;100.00;99883.73;1702721;83;20102;-73
2022/08/08 05:49:24;;;;;;;;;;;;;;;16.62;100.00;99889.13;1700239;83;20126;-74
2022/08/08 05:51:50;;;;;;;;;;;;;;;16.67;100.00;99889.08;1712713;83;21431;-72
2022/08/08 05:54:19;;;;;;;;;;;;;;;16.68;100.00;99885.81;1719096;81;20441;-72
2022/08/08 05:56:45;;;;;;;;;;;;;;;16.72;100.00;99889.03;1751540;82;20095;-72
2022/08/08 05:59:17;;;;;;;;;;;;;;;16.79;100.00;99892.80;1747743;82;20170;-70
2022/08/08 06:01:51;;;;;;;;;;;;;;;16.87;100.00;99892.16;1703520;81;20117;-71
2022/08/08 06:04:20;;;;;;;;;;;;;;;17.00;100.00;99889.86;1731853;81;21235;-75
2022/08/08 06:06:47;;;;;;;;;;;;;;;17.05;100.00;99896.05;1745784;81;20122;-73
2022/08/08 06:09:14;;;;;;;;;;;;;;;17.07;100.00;99899.27;1751503;81;20094;-71
2022/08/08 06:11:42;;;;;;;;;;;;;;;17.05;100.00;99897.41;1749865;81;20099;-71
2022/08/08 06:14:08;;;;;;;;;;;;;;;17.10;100.00;99893.28;1693251;84;20493;-74
2022/08/08 06:16:37;;;;;;;;;;;;;;;17.29;100.00;99893.86;1692481;83;22015;-72
2022/08/08 06:19:15;;;;;;;;;;;;;;;17.38;100.00;99889.97;1691824;83;20243;-73
2022/08/08 06:21:43;;;;;;;;;;;;;;;17.46;100.00;99888.77;1696091;83;20488;-75
2022/08/08 06:24:10;;;;;;;;;;;;;;;17.49;100.00;99891.44;1695251;83;20128;-71
2022/08/08 06:26:41;;;;;;;;;;;;;;;17.48;100.00;99887.92;1694483;83;20253;-71
2022/08/08 06:29:10;;;;;;;;;;;;;;;17.52;100.00;99882.19;1682257;83;21792;-72
2022/08/08 06:31:38;;;;;;;;;;;;;;;17.49;100.00;99880.59;1699680;83;20357;-72
2022/08/08 06:34:12;;;;;;;;;;;;;;;17.52;100.00;99874.05;1720929;82;20099;-71
2022/08/08 06:36:42;;;;;;;;;;;;;;;17.53;100.00;99880.27;1720075;82;20166;-73
2022/08/08 06:39:11;;;;;;;;;;;;;;;17.62;100.00;99881.24;1724227;82;20273;-73
2022/08/08 06:41:51;;;;;;;;;;;;;;;17.82;100.00;99880.73;1718855;82;21868;-74
2022/08/08 06:44:18;;;;;;;;;;;;;;;17.85;100.00;99887.72;1703624;82;20253;-72
2022/08/08 06:46:45;;;;;;;;;;;;;;;17.92;100.00;99896.31;1698213;83;20191;-72
2022/08/08 06:49:11;;;;;;;;;;;;;;;17.92;100.00;99899.02;1707365;84;20442;-73
2022/08/08 06:51:38;;;;;;;;;;;;;;;17.91;100.00;99897.98;1703633;83;20090;-72
2022/08/08 06:54:04;;;;;;;;;;;;;;;17.99;100.00;99899.47;1663502;83;21246;-72
2022/08/08 06:56:33;;;;;;;;;;;;;;;18.15;100.00;99901.41;1712988;83;20144;-73
2022/08/08 06:59:01;;;;;;;;;;;;;;;18.46;100.00;99895.47;1698392;83;20449;-74
2022/08/08 07:01:32;;;;;;;;;;;;;;;18.70;100.00;99906.76;1699407;84;20204;-73
2022/08/08 07:04:03;;;;;;;;;;;;;;;18.75;100.00;99899.87;1658981;85;20082;-72
2022/08/08 07:06:32;;;;;;;;;;;;;;;18.87;100.00;99902.94;1673763;84;21127;-71
2022/08/08 07:09:05;;;;;;;;;;;;;;;19.10;100.00;99901.69;1719842;82;20091;-74
2022/08/08 07:11:31;;;;;;;;;;;;;;;19.22;100.00;99915.04;1719023;82;20184;-74
2022/08/08 07:14:00;;;;;;;;;;;;;;;19.25;100.00;99917.70;1716629;82;20161;-74
2022/08/08 07:16:36;;;;;;;;;;;;;;;19.07;100.00;99916.70;1716414;82;20094;-72
2022/08/08 07:19:28;;;;;;;;;;;;;;;18.95;100.00;99913.11;1697558;83;21249;-70
2022/08/08 07:22:06;;;;;;;;;;;;;;;18.98;100.00;99917.94;1700356;84;20125;-73
2022/08/08 07:24:41;;;;;;;;;;;;;;;18.97;100.00;99920.42;1696071;83;20107;-74
2022/08/08 07:27:14;;;;;;;;;;;;;;;18.97;100.00;99923.70;1651985;85;20210;-73
2022/08/08 07:29:40;;;;;;;;;;;;;;;18.96;100.00;99923.44;1676245;83;20134;-71
2022/08/08 07:32:08;;;;;;;;;;;;;;;18.92;100.00;99919.16;1717122;83;21338;-74
2022/08/08 07:34:35;;;;;;;;;;;;;;;19.00;100.00;99919.81;1680086;84;20150;-74
2022/08/08 07:37:04;;;;;;;;;;;;;;;19.13;100.00;99920.13;1677522;84;20153;-74
2022/08/08 07:39:36;;;;;;;;;;;;;;;-93.79;100.00;99926.83;1670262;85;20512;-73
2022/08/08 07:42:03;;;;;;;;;;;;;;;19.18;100.00;99926.83;1649540;86;20199;-75
2022/08/08 07:44:46;;;;;;;;;;;;;;;;;;1682960;84;21083;-72
2022/08/08 07:47:15;;;;;;;;;;;;;;;-146.13;100.00;99922.84;1723591;81;20119;-72
2022/08/08 07:49:48;;;;;;;;;;;;;;;;;;1719584;82;20130;-74
2022/08/08 07:52:22;;;;;;;;;;;;;;;19.13;0.00;99922.84;1720827;82;20175;-71
2022/08/08 07:55:00;;;;;;;;;;;;;;;-144.87;0.00;121243.64;1721512;82;20170;-73
2022/08/08 07:57:35;;;;;;;;;;;;;;;-146.13;0.00;82857.74;1719946;82;21146;-72
2022/08/08 08:00:08;;;;;;;;;;;;;;;-144.87;0.00;76028.95;1720503;82;20107;-70
2022/08/08 08:02:56;;;;;;;;;;;;;;;-144.87;100.00;76191.60;1713569;82;20098;-74
2022/08/08 08:05:25;;;;;;;;;;;;;;;-144.87;0.00;99922.84;1711726;83;20085;-72
2022/08/08 08:07:54;;;;;;;;;;;;;;;-146.14;100.00;121243.23;1722454;81;20086;-72
2022/08/08 08:10:23;;;;;;;;;;;;;;;19.13;100.00;99922.84;1709079;81;21175;-72
2022/08/08 08:12:56;;;;;;;;;;;;;;;19.28;100.00;99961.47;1707748;82;20246;-74
2022/08/08 08:15:24;;;;;;;;;;;;;;;19.27;100.00;99954.95;1685538;83;20090;-71
2022/08/08 08:17:57;;;;;;;;;;;;;;;-146.14;100.00;121243.23;1711566;83;20085;-72
2022/08/08 08:20:27;;;;;;;;;;;;;;;19.26;100.00;99954.16;1710605;84;20086;-74
2022/08/08 08:22:54;;;;;;;;;;;;;;;182.55;100.00;121243.23;1715085;83;21311;-71
2022/08/08 08:25:21;;;;;;;;;;;;;;;-146.13;100.00;99959.59;1684600;84;20096;-71
2022/08/08 08:27:47;;;;;;;;;;;;;;;19.26;100.00;99959.59;1686520;84;20155;-72
2022/08/08 08:30:14;;;;;;;;;;;;;;;19.12;100.00;99956.05;1668383;84;20456;-71
2022/08/08 08:32:42;;;;;;;;;;;;;;;19.12;100.00;99962.05;1720505;82;20123;-72
2022/08/08 08:35:11;;;;;;;;;;;;;;;19.19;100.00;99965.19;1723217;82;21151;-73
2022/08/08 08:37:38;;;;;;;;;;;;;;;19.33;100.00;99967.37;1719931;82;20083;-73
2022/08/08 08:40:05;;;;;;;;;;;;;;;19.47;100.00;99961.34;1719526;82;20134;-73
2022/08/08 08:42:33;;;;;;;;;;;;;;;19.58;100.00;99969.33;1718698;82;20150;-70
2022/08/08 08:45:01;;;;;;;;;;;;;;;19.67;100.00;99971.57;1715665;82;20110;-71
2022/08/08 08:47:28;;;;;;;;;;;;;;;19.65;100.00;99973.81;1710935;84;21106;-71
2022/08/08 08:49:55;;;;;;;;;;;;;;;19.46;100.00;99965.19;1712652;81;20084;-74
2022/08/08 08:52:21;;;;;;;;;;;;;;;19.46;100.00;99969.27;1704951;81;20431;-72
2022/08/08 08:54:48;;;;;;;;;;;;;;;19.55;100.00;99969.38;1684186;83;20431;-72
2022/08/08 08:57:15;;;;;;;;;;;;;;;19.63;100.00;99978.75;1694478;83;20156;-72
2022/08/08 08:59:43;;;;;;;;;;;;;;;19.76;100.00;99968.98;1695135;83;20679;-73
2022/08/08 09:02:16;;;;;;;;;;;;;;;19.70;100.00;99975.10;1692328;83;20122;-72
2022/08/08 09:04:43;;;;;;;;;;;;;;;19.57;100.00;99963.05;1674660;85;20123;-73
2022/08/08 09:07:11;;;;;;;;;;;;;;;19.54;100.00;99962.31;1662184;85;20545;-72
2022/08/08 09:09:38;;;;;;;;;;;;;;;19.72;100.00;99968.80;1672094;85;20160;-71
2022/08/08 09:12:10;;;;;;;;;;;;;;;19.76;100.00;99958.09;1677177;85;21954;-72
2022/08/08 09:14:38;;;;;;;;;;;;;;;19.64;100.00;99958.57;1666846;84;20102;-72
2022/08/08 09:17:05;;;;;;;;;;;;;;;19.64;100.00;99970.83;1663218;85;20432;-74
2022/08/08 09:19:32;;;;;;;;;;;;;;;19.78;100.00;99962.68;1680033;84;20076;-74
2022/08/08 09:21:59;;;;;;;;;;;;;;;19.81;100.00;99959.34;1659452;85;20103;-72
2022/08/08 09:24:25;;;;;;;;;;;;;;;19.69;100.00;99968.83;1693913;83;21160;-73
2022/08/08 09:27:11;;;;;;;;;;;;;;;19.68;100.00;99969.14;1702220;83;20095;-74
2022/08/08 09:29:51;;;;;;;;;;;;;;;19.70;100.00;99968.29;1685287;83;20131;-74
2022/08/08 09:32:37;;;;;;;;;;;;;;;19.60;100.00;99968.45;1702424;83;20217;-74
2022/08/08 09:35:07;;;;;;;;;;;;;;;19.53;100.00;99968.08;1691281;83;20167;-74
2022/08/08 09:37:49;;;;;;;;;;;;;;;19.57;100.00;99976.67;1697160;82;21218;-73
2022/08/08 09:40:19;;;;;;;;;;;;;;;19.65;100.00;99978.70;1656990;85;20439;-73
2022/08/08 09:42:47;;;;;;;;;;;;;;;19.55;100.00;99981.64;1645683;86;20103;-75
2022/08/08 09:45:21;;;;;;;;;;;;;;;19.64;100.00;99970.83;1663072;85;20102;-70
2022/08/08 09:47:48;;;;;;;;;;;;;;;19.66;100.00;99972.70;1662871;85;20150;-72
2022/08/08 09:50:19;;;;;;;;;;;;;;;19.55;100.00;99969.91;1671703;83;21159;-73
2022/08/08 09:52:50;;;;;;;;;;;;;;;19.54;100.00;99969.11;1707297;83;20264;-74
2022/08/08 09:55:18;;;;;;;;;;;;;;;19.48;100.00;99964.90;1694993;83;20093;-73
2022/08/08 09:57:46;;;;;;;;;;;;;;;19.43;100.00;99969.89;1699494;83;20122;-75
2022/08/08 10:00:13;;;;;;;;;;;;;;;19.40;100.00;99969.67;1698503;83;20130;-72
2022/08/08 10:02:43;;;;;;;;;;;;;;;19.30;100.00;99968.51;1687678;83;21162;-74
2022/08/08 10:05:17;;;;;;;;;;;;;;;19.36;100.00;99969.48;1668518;85;20106;-75
2022/08/08 10:07:54;;;;;;;;;;;;;;;19.39;100.00;99970.23;1667194;85;20187;-74
2022/08/08 10:10:30;;;;;;;;;;;;;;;19.36;100.00;99962.67;1669626;84;20174;-73
2022/08/08 10:12:57;;;;;;;;;;;;;;;19.32;100.00;99964.38;1707921;84;20224;-73
2022/08/08 10:15:26;;;;;;;;;;;;;;;19.40;100.00;99965.05;1686528;83;21151;-75
2022/08/08 10:17:55;;;;;;;;;;;;;;;19.46;100.00;99971.20;1673889;83;20196;-75
2022/08/08 10:20:28;;;;;;;;;;;;;;;19.35;100.00;99963.77;1667616;84;20152;-74
2022/08/08 10:22:59;;;;;;;;;;;;;;;19.38;100.00;99967.27;1675701;85;20161;-73
2022/08/08 10:25:27;;;;;;;;;;;;;;;19.52;100.00;99967.25;1676179;83;20207;-74
2022/08/08 10:27:55;;;;;;;;;;;;;;;19.56;100.00;99966.10;1677445;85;21156;-74
2022/08/08 10:30:24;;;;;;;;;;;;;;;19.70;100.00;99964.20;1685559;84;20432;-71
2022/08/08 10:32:52;;;;;;;;;;;;;;;19.70;100.00;99964.20;1700571;83;20118;-74
2022/08/08 10:35:22;;;;;;;;;;;;;;;19.69;100.00;99966.10;1687466;85;20156;-73
2022/08/08 10:37:56;;;;;;;;;;;;;;;19.84;100.00;99962.28;1684931;85;20128;-75
2022/08/08 10:40:26;;;;;;;;;;;;;;;20.01;100.00;99958.08;1687695;85;22010;-71
2022/08/08 10:43:03;;;;;;;;;;;;;;;19.91;100.00;99954.46;1688187;85;20144;-74
2022/08/08 10:45:41;;;;;;;;;;;;;;;19.96;100.00;99959.56;1686274;85;20174;-74
2022/08/08 10:48:09;;;;;;;;;;;;;;;20.07;100.00;99959.03;1688142;85;20172;-70
2022/08/08 10:50:37;;;;;;;;;;;;;;;20.15;100.00;99960.22;1695605;83;20518;-71
2022/08/08 10:53:05;;;;;;;;;;;;;;;20.07;100.00;99952.78;1664612;84;21343;-71
2022/08/08 10:55:32;;;;;;;;;;;;;;;20.20;100.00;99947.03;1677693;85;20429;-72
2022/08/08 10:58:01;;;;;;;;;;;;;;;20.32;100.00;99949.45;1677000;83;20104;-73
2022/08/08 11:00:28;;;;;;;;;;;;;;;20.31;100.00;99944.33;1679673;83;20153;-72
2022/08/08 11:02:54;;;;;;;;;;;;;;;20.42;100.00;99955.22;1718260;81;20436;-72
2022/08/08 11:05:21;;;;;;;;;;;;;;;20.52;100.00;99954.16;1666541;85;21129;-71
2022/08/08 11:07:51;;;;;;;;;;;;;;;20.62;100.00;99943.59;1673208;85;20096;-70
2022/08/08 11:10:19;;;;;;;;;;;;;;;20.76;100.00;99942.96;1664043;85;20140;-72
2022/08/08 11:12:47;;;;;;;;;;;;;;;20.90;100.00;99949.71;1692962;83;20197;-75
2022/08/08 11:15:15;;;;;;;;;;;;;;;21.22;100.00;99947.20;1693752;83;20130;-72
2022/08/08 11:17:42;;;;;;;;;;;;;;;21.47;100.00;99949.00;1695136;83;21089;-74
2022/08/08 11:20:11;;;;;;;;;;;;;;;21.71;100.00;99955.41;1690860;84;20097;-72
2022/08/08 11:22:39;;;;;;;;;;;;;;;21.55;100.00;99948.22;1692138;83;20097;-74
2022/08/08 11:25:10;;;;;;;;;;;;;;;21.43;100.00;99946.09;1676975;85;20100;-75
2022/08/08 11:27:37;;;;;;;;;;;;;;;21.34;100.00;99937.85;1677964;84;20119;-76
2022/08/08 11:30:06;;;;;;;;;;;;;;;21.32;100.00;99951.02;1684029;84;21853;-72
2022/08/08 11:32:35;;;;;;;;;;;;;;;21.33;100.00;99944.98;1693681;83;20158;-75
2022/08/08 11:35:09;;;;;;;;;;;;;;;21.50;100.00;99945.63;1663589;85;20144;-72
2022/08/08 11:37:37;;;;;;;;;;;;;;;21.61;100.00;99946.95;1657808;85;20444;-73
2022/08/08 11:40:05;;;;;;;;;;;;;;;21.89;100.00;99939.28;1657884;85;20496;-74
2022/08/08 11:42:33;;;;;;;;;;;;;;;21.84;100.00;99933.41;1662419;85;21237;-73
2022/08/08 11:44:59;;;;;;;;;;;;;;;21.62;100.00;99943.89;1663320;85;20169;-76
2022/08/08 11:47:26;;;;;;;;;;;;;;;21.54;100.00;99932.39;1660200;86;20601;-74
2022/08/08 11:49:58;;;;;;;;;;;;;;;21.55;100.00;99933.99;1658469;85;20156;-74
2022/08/08 11:52:25;;;;;;;;;;;;;;;21.61;100.00;99936.83;1660476;85;20163;-74
2022/08/08 11:54:51;;;;;;;;;;;;;;;21.56;100.00;99928.79;1658730;86;21898;-73
2022/08/08 11:57:19;;;;;;;;;;;;;;;21.67;100.00;99932.58;1640424;85;20117;-74
2022/08/08 11:59:59;;;;;;;;;;;;;;;21.91;100.00;99938.97;1660248;86;20135;-75
2022/08/08 12:02:27;;;;;;;;;;;;;;;22.26;100.00;99936.49;1657022;85;20102;-73
2022/08/08 12:05:09;;;;;;;;;;;;;;;22.53;100.00;99941.95;1662605;85;20162;-73
2022/08/08 12:07:47;;;;;;;;;;;;;;;22.51;100.00;99941.47;1660186;85;21099;-74
2022/08/08 12:10:16;;;;;;;;;;;;;;;22.57;100.00;99936.08;1655652;85;20107;-76
2022/08/08 12:12:44;;;;;;;;;;;;;;;22.52;100.00;99937.05;1659815;85;20432;-72
2022/08/08 12:15:11;;;;;;;;;;;;;;;22.39;100.00;99938.02;1642913;85;20486;-73
2022/08/08 12:17:39;;;;;;;;;;;;;;;22.34;100.00;99938.18;1658461;85;20126;-71
2022/08/08 12:20:07;;;;;;;;;;;;;;;22.29;100.00;99932.87;1699567;83;21281;-74
2022/08/08 12:22:36;;;;;;;;;;;;;;;22.26;100.00;99934.33;1711723;84;20416;-72
2022/08/08 12:25:03;;;;;;;;;;;;;;;22.24;100.00;99939.31;1701295;82;20147;-73
2022/08/08 12:27:37;;;;;;;;;;;;;;;22.20;100.00;99935.64;1699867;83;20274;-73
2022/08/08 12:30:04;;;;;;;;;;;;;;;22.30;100.00;99931.20;1711772;82;20115;-74
2022/08/08 12:32:42;;;;;;;;;;;;;;;22.20;100.00;99926.86;1707864;83;21335;-73
2022/08/08 12:35:22;;;;;;;;;;;;;;;22.09;100.00;99926.11;1720932;82;20127;-71
2022/08/08 12:38:06;;;;;;;;;;;;;;;22.00;100.00;99923.39;1722590;82;20121;-73
2022/08/08 12:40:46;;;;;;;;;;;;;;;21.85;100.00;99926.00;1723407;82;20134;-71
2022/08/08 12:43:14;;;;;;;;;;;;;;;21.87;100.00;99922.96;1722594;82;20151;-70
2022/08/08 12:45:43;;;;;;;;;;;;;;;22.04;100.00;99921.60;1722145;82;21248;-71
2022/08/08 12:48:18;;;;;;;;;;;;;;;22.16;100.00;99925.86;1720299;82;20083;-73
2022/08/08 12:50:49;;;;;;;;;;;;;;;22.24;100.00;99927.01;1719200;82;20099;-72
2022/08/08 12:53:20;;;;;;;;;;;;;;;22.36;100.00;99918.95;1720324;82;20523;-72
2022/08/08 12:55:55;;;;;;;;;;;;;;;22.48;100.00;99925.94;1722967;82;20083;-72
2022/08/08 12:58:23;;;;;;;;;;;;;;;22.37;100.00;99929.36;1722088;82;21934;-76
2022/08/08 13:00:49;;;;;;;;;;;;;;;22.15;100.00;99921.53;1718574;82;20454;-71
2022/08/08 13:03:26;;;;;;;;;;;;;;;22.36;100.00;99925.79;1669904;84;20103;-73
2022/08/08 13:06:08;;;;;;;;;;;;;;;22.71;100.00;99921.65;1681286;85;20088;-72
2022/08/08 13:08:45;;;;;;;;;;;;;;;22.90;100.00;99920.67;1698405;81;20166;-72
2022/08/08 13:11:26;;;;;;;;;;;;;;;22.93;100.00;99919.79;1728965;81;21235;-74